Time;durP1;ratioP1;P1;durP2;ratioP2;P2;SDS_P1;SDS_P2;PMS_P1;PMS_P2;Temp;Humidity;BMP_temperature;BMP_pressure;BME280_temperature;BME280_humidity;BME280_pressure;Samples;Min_cycle;Max_cycle;Signal;HPM_P1;HPM_P2
2021/07/15 00:03:20;;;;;;;8.00;4.57;;;;;;;20.15;73.25;99440.26;254835;1104;114812;-65
2021/07/15 00:08:26;;;;;;;8.85;4.35;;;;;;;20.12;72.99;99438.16;256079;1104;114729;-66
2021/07/15 00:13:29;;;;;;;6.03;3.98;;;;;;;19.97;73.13;99466.33;254182;1098;115192;-66
2021/07/15 00:18:39;;;;;;;10.30;4.55;;;;;;;19.92;73.07;99498.90;254120;1104;115203;-66
2021/07/15 00:23:45;;;;;;;5.67;3.83;;;;;;;19.90;73.45;99470.55;254937;1104;115386;-66
2021/07/15 00:28:49;;;;;;;9.53;4.53;;;;;;;19.87;73.37;99450.34;255061;1104;115087;-66
2021/07/15 00:33:53;;;;;;;6.20;4.13;;;;;;;19.81;73.64;99433.41;254209;1104;115249;-65
2021/07/15 00:38:56;;;;;;;7.95;4.48;;;;;;;19.76;73.63;99428.10;254753;1104;115082;-65
2021/07/15 00:44:04;;;;;;;10.68;4.93;;;;;;;19.61;73.68;99424.90;254949;1104;115678;-65
2021/07/15 00:49:07;;;;;;;7.58;4.23;;;;;;;19.55;73.96;99399.89;255627;1098;115363;-66
2021/07/15 00:54:11;;;;;;;4.50;3.75;;;;;;;19.49;73.56;99399.16;255206;1104;118662;-66
2021/07/15 00:59:20;;;;;;;10.37;4.23;;;;;;;19.35;73.62;99427.28;256039;1103;114363;-66
2021/07/15 01:04:23;;;;;;;6.85;4.43;;;;;;;19.32;73.72;99474.63;254738;1104;116299;-65
2021/07/15 01:09:26;;;;;;;8.93;5.00;;;;;;;19.24;74.08;99469.13;255845;1104;116370;-66
2021/07/15 01:14:39;;;;;;;9.50;4.47;;;;;;;19.31;74.51;99474.92;254951;1104;117075;-65
2021/07/15 01:20:18;;;;;;;6.30;4.40;;;;;;;19.35;74.77;99478.63;257277;1104;114412;-65
2021/07/15 01:25:27;;;;;;;13.48;5.33;;;;;;;19.35;74.79;99525.38;254619;1104;115862;-66
2021/07/15 01:30:34;;;;;;;10.30;5.28;;;;;;;19.37;75.10;99565.63;254396;1103;115364;-64
2021/07/15 01:35:49;;;;;;;5.95;4.23;;;;;;;19.44;75.23;99607.41;257461;1104;115290;-65
2021/07/15 01:41:01;;;;;;;6.20;3.78;;;;;;;19.47;75.17;99584.39;257104;1103;114289;-64
2021/07/15 01:46:06;;;;;;;6.13;3.78;;;;;;;19.37;75.50;99560.22;257321;1104;115212;-67
2021/07/15 10:24:54;;;;;;;7.87;6.43;;;;;;;24.97;69.81;99648.39;261065;1093;103062;-65
2021/07/15 10:30:19;;;;;;;13.90;6.37;;;;;;;25.26;70.19;99652.17;254615;1104;114547;-67
2021/07/15 10:35:26;;;;;;;9.10;7.20;;;;;;;25.40;69.46;99649.94;254468;1104;115320;-67
2021/07/15 10:40:31;;;;;;;8.83;7.70;;;;;;;25.51;68.91;99612.92;254425;1099;114458;-67
2021/07/15 10:45:35;;;;;;;9.47;7.43;;;;;;;25.28;68.55;99615.24;254321;1100;114947;-67
2021/07/15 10:50:41;;;;;;;7.65;6.93;;;;;;;25.21;68.52;99600.55;254470;1104;115449;-68
2021/07/15 10:55:46;;;;;;;13.78;8.25;;;;;;;25.24;69.10;99597.15;254416;1100;115151;-70
2021/07/15 11:00:50;;;;;;;9.40;7.20;;;;;;;25.24;68.58;99597.15;254536;1104;115329;-69
2021/07/15 11:05:58;;;;;;;10.00;8.23;;;;;;;25.23;68.02;99625.56;254377;1104;114768;-69
2021/07/15 11:11:06;;;;;;;11.57;8.00;;;;;;;25.34;68.55;99648.58;254998;1098;115165;-68
2021/07/15 11:16:11;;;;;;;11.67;7.73;;;;;;;25.48;67.72;99651.80;257016;1104;115659;-69
2021/07/15 11:21:30;;;;;;;11.98;6.40;;;;;;;26.22;67.31;99623.53;255469;1104;115724;-68
2021/07/15 11:26:42;;;;;;;11.03;6.17;;;;;;;26.59;66.75;99631.75;256256;1104;115462;-68
2021/07/15 11:31:51;;;;;;;12.67;6.43;;;;;;;26.59;66.26;99638.02;254301;1104;114845;-69
2021/07/15 11:37:37;;;;;;;7.08;6.03;;;;;;;26.43;66.07;99645.30;255489;1104;115990;-69
2021/07/15 11:42:46;;;;;;;10.80;6.97;;;;;;;26.69;66.16;99644.94;257367;1104;115231;-69
2021/07/15 11:47:55;;;;;;;7.97;6.90;;;;;;;27.03;65.42;99635.43;257327;1104;115235;-69
2021/07/15 11:53:21;;;;;;;8.53;4.90;;;;;;;27.46;64.63;99621.02;255299;1104;114458;-69
2021/07/15 11:58:45;;;;;;;7.48;6.80;;;;;;;27.64;63.47;99616.83;255816;1104;114917;-68
2021/07/15 12:03:56;;;;;;;;;;;;;;;27.76;63.24;99614.02;254769;1104;116055;-69
2021/07/15 12:09:10;;;;;;;9.95;6.63;;;;;;;27.76;62.85;99607.75;255433;1100;102942;-69
2021/07/15 12:14:15;;;;;;;9.20;4.90;;;;;;;27.81;61.86;99588.31;255566;1104;115597;-68
2021/07/15 12:19:20;;;;;;;9.05;6.18;;;;;;;27.97;61.57;99591.84;255513;1104;114422;-68
